Ana Sayfa
METAR-TAF:

METAR-TAF

Havaalanları :

Moroni, Komor Adaları

Enlem: 11-32S, Boylam: 043-16E, yükseklik: 29 m

Güncel hava durumu gözlemi

Rapor saat 18:00 UTC de 4 saat ve 46 dakika önce yapıldı.
Rüzgar doğu/güneydoğudan 7 kt
Sıcaklık 28°C
Nem 74%
Basınç 1011 hPa
Görüş mesafesi 10 km veya daha fazla
2000 ft yükseklikte az bulutlu

METAR: FMCH 191800Z 11007KT 9999 FEW020 28/23 Q1011 NOSIG

Saat: 01:46 (22:46 UTC)

Tahmin

Rapor saat 17:00 UTC de 5 saat ve 46 dakika önce yapıldı.
Ayın 19'si saat 18 UTC'den ayın 20'si saat 24 UTC'ye kadar geçerli Tahmin
Rüzgar doğudan 3 kt
Görüş mesafesi 10 km veya daha fazla
2000 ft yükseklikte az bulutlu
Dönüşüyor
ayın 20'si saat 04 UTC'den ayın 20'si saat 06 UTC'ye kadar
Rüzgar batı/kuzeybatıdan 10 kt
Dönüşüyor
ayın 20'si saat 16 UTC'den ayın 20'si saat 18 UTC'ye kadar
Rüzgar doğudan 3 kt

TAF: FMCH 191700Z 1918/2024 08003KT 9999 FEW020 BECMG 2004/2006 29010KT BECMG 2016/2018 09003KT

4.000'den fazla havaalanı için hava durumu gözlemleri ve tahminleri (METAR ve TAF raporları).

Kullanılabilir istasyonlar harita üzerinde sarı ve kırmızı noktalarla gösterilir.

İstasyonun adını görmek için fareyi noktanın üzerinde gezdirin.

Sonrasında hava gözlem ve tahminlerini görmek için tıklayın.

Haritayı değiştirmek için: yaklaştırmak için siyah artı işaretli yeşil düğmeye ve uzaklaştırmak için de eksi işaretli düğmeye hızla tıklayın; bitişik haritalar için yeşil okları kullanın.


METAR-TAF: